Terminal Aerodrome Forecast
Issued by NWS Sterling, VA

Current Version | Previous Version | Text Only | Print | Product List | Glossary Off
Versions: 1 2 3 4 5 6 7 8 9 10 11 12 13 14 15

000
FTUS41 KLWX 181100 RRA
TAFMRB
TAF
KMRB 181141Z 1812/1912 VRB03KT P6SM BKN050 BKN130
     FM181800 15005KT P6SM BKN050 BKN130
     FM190400 00000KT 3SM BR BKN015 OVC050
     FM190600 00000KT 2SM BR OVC008=

USA.gov is the U.S. government's official web portal to all federal, state and local government web resources and services.